sensor_id;sensor_type;location;lat;lon;timestamp;P1;durP1;ratioP1;P2;durP2;ratioP2
29854;SDS011;16733;48.738;9.106;2023-09-12T00:00:01;12.48;;;4.68;;
29854;SDS011;16733;48.738;9.106;2023-09-12T00:02:28;5.75;;;3.60;;
29854;SDS011;16733;48.738;9.106;2023-09-12T00:04:54;9.20;;;4.30;;
29854;SDS011;16733;48.738;9.106;2023-09-12T00:07:20;9.63;;;4.60;;
29854;SDS011;16733;48.738;9.106;2023-09-12T00:09:46;10.65;;;4.60;;
29854;SDS011;16733;48.738;9.106;2023-09-12T00:12:15;10.30;;;4.30;;
29854;SDS011;16733;48.738;9.106;2023-09-12T00:14:41;11.68;;;4.63;;
29854;SDS011;16733;48.738;9.106;2023-09-12T00:17:08;5.88;;;4.38;;
29854;SDS011;16733;48.738;9.106;2023-09-12T00:19:34;10.88;;;4.78;;
29854;SDS011;16733;48.738;9.106;2023-09-12T00:22:00;13.75;;;5.50;;
29854;SDS011;16733;48.738;9.106;2023-09-12T00:24:26;11.43;;;5.32;;
29854;SDS011;16733;48.738;9.106;2023-09-12T00:26:52;9.57;;;5.20;;
29854;SDS011;16733;48.738;9.106;2023-09-12T00:29:18;10.35;;;4.80;;
29854;SDS011;16733;48.738;9.106;2023-09-12T00:31:44;10.15;;;5.03;;
29854;SDS011;16733;48.738;9.106;2023-09-12T00:34:15;11.60;;;5.05;;
29854;SDS011;16733;48.738;9.106;2023-09-12T00:36:41;7.43;;;4.68;;
29854;SDS011;16733;48.738;9.106;2023-09-12T00:39:07;9.30;;;4.70;;
29854;SDS011;16733;48.738;9.106;2023-09-12T00:41:33;14.00;;;5.05;;
29854;SDS011;16733;48.738;9.106;2023-09-12T00:43:59;15.38;;;5.13;;
29854;SDS011;16733;48.738;9.106;2023-09-12T00:46:25;12.75;;;4.95;;
29854;SDS011;16733;48.738;9.106;2023-09-12T00:48:51;12.00;;;4.55;;
29854;SDS011;16733;48.738;9.106;2023-09-12T00:51:18;8.23;;;4.72;;
29854;SDS011;16733;48.738;9.106;2023-09-12T00:53:46;11.32;;;4.93;;
29854;SDS011;16733;48.738;9.106;2023-09-12T00:56:12;10.75;;;4.80;;
29854;SDS011;16733;48.738;9.106;2023-09-12T00:58:38;12.38;;;5.05;;
29854;SDS011;16733;48.738;9.106;2023-09-12T01:01:05;9.02;;;4.60;;
29854;SDS011;16733;48.738;9.106;2023-09-12T01:03:31;10.82;;;4.57;;
29854;SDS011;16733;48.738;9.106;2023-09-12T01:05:58;13.32;;;4.95;;
29854;SDS011;16733;48.738;9.106;2023-09-12T01:08:24;9.68;;;5.10;;
29854;SDS011;16733;48.738;9.106;2023-09-12T01:10:50;16.40;;;4.75;;
29854;SDS011;16733;48.738;9.106;2023-09-12T01:13:18;11.10;;;4.95;;
29854;SDS011;16733;48.738;9.106;2023-09-12T01:15:44;8.15;;;4.93;;
29854;SDS011;16733;48.738;9.106;2023-09-12T01:18:10;7.88;;;4.85;;
29854;SDS011;16733;48.738;9.106;2023-09-12T01:20:36;7.28;;;4.75;;
29854;SDS011;16733;48.738;9.106;2023-09-12T01:26:01;8.95;;;4.13;;
29854;SDS011;16733;48.738;9.106;2023-09-12T01:28:29;9.77;;;4.32;;
29854;SDS011;16733;48.738;9.106;2023-09-12T01:30:59;10.13;;;5.20;;
29854;SDS011;16733;48.738;9.106;2023-09-12T01:33:27;7.45;;;4.43;;
29854;SDS011;16733;48.738;9.106;2023-09-12T01:35:53;12.15;;;5.15;;
29854;SDS011;16733;48.738;9.106;2023-09-12T01:38:20;13.45;;;4.88;;
29854;SDS011;16733;48.738;9.106;2023-09-12T01:40:48;9.18;;;5.05;;
29854;SDS011;16733;48.738;9.106;2023-09-12T01:43:18;9.45;;;4.32;;
29854;SDS011;16733;48.738;9.106;2023-09-12T01:45:45;12.07;;;4.40;;
29854;SDS011;16733;48.738;9.106;2023-09-12T01:48:11;7.72;;;4.85;;
29854;SDS011;16733;48.738;9.106;2023-09-12T01:50:37;13.82;;;5.35;;
29854;SDS011;16733;48.738;9.106;2023-09-12T01:53:03;7.85;;;4.50;;
29854;SDS011;16733;48.738;9.106;2023-09-12T01:55:29;9.63;;;4.57;;
29854;SDS011;16733;48.738;9.106;2023-09-12T01:57:56;14.20;;;4.68;;
29854;SDS011;16733;48.738;9.106;2023-09-12T02:00:23;7.18;;;4.55;;
29854;SDS011;16733;48.738;9.106;2023-09-12T02:02:49;15.05;;;4.93;;
29854;SDS011;16733;48.738;9.106;2023-09-12T02:05:18;10.43;;;5.10;;
29854;SDS011;16733;48.738;9.106;2023-09-12T02:07:46;10.57;;;4.88;;
29854;SDS011;16733;48.738;9.106;2023-09-12T02:10:12;9.00;;;5.30;;
29854;SDS011;16733;48.738;9.106;2023-09-12T02:12:38;10.23;;;4.88;;
29854;SDS011;16733;48.738;9.106;2023-09-12T02:15:05;13.68;;;5.15;;
29854;SDS011;16733;48.738;9.106;2023-09-12T02:17:31;10.70;;;4.50;;
29854;SDS011;16733;48.738;9.106;2023-09-12T02:19:57;8.98;;;4.68;;
29854;SDS011;16733;48.738;9.106;2023-09-12T02:22:23;11.02;;;4.72;;
29854;SDS011;16733;48.738;9.106;2023-09-12T02:24:49;8.93;;;4.78;;
29854;SDS011;16733;48.738;9.106;2023-09-12T02:27:15;13.13;;;4.55;;
29854;SDS011;16733;48.738;9.106;2023-09-12T02:29:41;13.32;;;4.90;;
29854;SDS011;16733;48.738;9.106;2023-09-12T02:32:08;10.70;;;4.63;;
29854;SDS011;16733;48.738;9.106;2023-09-12T02:34:34;12.10;;;4.32;;
29854;SDS011;16733;48.738;9.106;2023-09-12T02:37:00;8.82;;;4.60;;
29854;SDS011;16733;48.738;9.106;2023-09-12T02:39:26;14.32;;;4.78;;
29854;SDS011;16733;48.738;9.106;2023-09-12T02:41:52;16.77;;;4.75;;
29854;SDS011;16733;48.738;9.106;2023-09-12T02:44:18;13.60;;;4.47;;
29854;SDS011;16733;48.738;9.106;2023-09-12T02:46:45;7.93;;;4.72;;
29854;SDS011;16733;48.738;9.106;2023-09-12T02:49:11;11.00;;;4.72;;
29854;SDS011;16733;48.738;9.106;2023-09-12T02:51:38;12.85;;;4.78;;
29854;SDS011;16733;48.738;9.106;2023-09-12T02:54:04;16.80;;;5.15;;
29854;SDS011;16733;48.738;9.106;2023-09-12T02:56:30;9.27;;;4.75;;
29854;SDS011;16733;48.738;9.106;2023-09-12T02:58:56;10.88;;;5.32;;
29854;SDS011;16733;48.738;9.106;2023-09-12T03:01:22;9.65;;;4.88;;
29854;SDS011;16733;48.738;9.106;2023-09-12T03:03:52;8.43;;;4.38;;
29854;SDS011;16733;48.738;9.106;2023-09-12T03:06:18;10.45;;;4.80;;
29854;SDS011;16733;48.738;9.106;2023-09-12T03:08:45;9.82;;;5.13;;
29854;SDS011;16733;48.738;9.106;2023-09-12T03:11:11;10.65;;;4.95;;
29854;SDS011;16733;48.738;9.106;2023-09-12T03:13:37;15.32;;;5.28;;
29854;SDS011;16733;48.738;9.106;2023-09-12T03:16:03;7.95;;;4.65;;
29854;SDS011;16733;48.738;9.106;2023-09-12T03:18:30;11.05;;;4.68;;
29854;SDS011;16733;48.738;9.106;2023-09-12T03:20:56;11.57;;;4.68;;
29854;SDS011;16733;48.738;9.106;2023-09-12T03:23:22;13.20;;;5.03;;
29854;SDS011;16733;48.738;9.106;2023-09-12T03:25:48;10.43;;;4.95;;
29854;SDS011;16733;48.738;9.106;2023-09-12T03:28:14;11.05;;;5.00;;
29854;SDS011;16733;48.738;9.106;2023-09-12T03:30:42;9.80;;;5.32;;
29854;SDS011;16733;48.738;9.106;2023-09-12T03:33:08;7.78;;;4.97;;
29854;SDS011;16733;48.738;9.106;2023-09-12T03:35:34;9.63;;;5.03;;
29854;SDS011;16733;48.738;9.106;2023-09-12T03:38:00;8.55;;;4.90;;
29854;SDS011;16733;48.738;9.106;2023-09-12T03:40:31;10.70;;;5.10;;
29854;SDS011;16733;48.738;9.106;2023-09-12T03:42:57;9.77;;;5.05;;
29854;SDS011;16733;48.738;9.106;2023-09-12T03:45:23;15.38;;;5.00;;
29854;SDS011;16733;48.738;9.106;2023-09-12T03:47:49;10.65;;;4.95;;
29854;SDS011;16733;48.738;9.106;2023-09-12T03:50:15;18.55;;;5.47;;
29854;SDS011;16733;48.738;9.106;2023-09-12T03:52:41;14.65;;;4.85;;
29854;SDS011;16733;48.738;9.106;2023-09-12T03:55:08;11.20;;;5.15;;
29854;SDS011;16733;48.738;9.106;2023-09-12T03:57:34;14.85;;;6.10;;
29854;SDS011;16733;48.738;9.106;2023-09-12T04:00:00;12.75;;;5.32;;
29854;SDS011;16733;48.738;9.106;2023-09-12T04:02:29;13.43;;;5.60;;
29854;SDS011;16733;48.738;9.106;2023-09-12T04:04:55;11.50;;;5.07;;
29854;SDS011;16733;48.738;9.106;2023-09-12T04:07:24;14.15;;;5.85;;
29854;SDS011;16733;48.738;9.106;2023-09-12T04:09:50;11.65;;;5.07;;
29854;SDS011;16733;48.738;9.106;2023-09-12T04:12:16;10.40;;;5.00;;
29854;SDS011;16733;48.738;9.106;2023-09-12T04:14:42;12.13;;;5.90;;
29854;SDS011;16733;48.738;9.106;2023-09-12T04:17:08;7.57;;;5.20;;
29854;SDS011;16733;48.738;9.106;2023-09-12T04:19:34;13.60;;;5.97;;
29854;SDS011;16733;48.738;9.106;2023-09-12T04:22:00;13.07;;;5.53;;
29854;SDS011;16733;48.738;9.106;2023-09-12T04:24:26;13.00;;;5.63;;
29854;SDS011;16733;48.738;9.106;2023-09-12T04:26:53;11.50;;;5.40;;
29854;SDS011;16733;48.738;9.106;2023-09-12T04:29:19;11.02;;;5.43;;
29854;SDS011;16733;48.738;9.106;2023-09-12T04:31:45;20.30;;;6.13;;
29854;SDS011;16733;48.738;9.106;2023-09-12T04:34:11;11.98;;;5.60;;
29854;SDS011;16733;48.738;9.106;2023-09-12T04:36:37;14.27;;;5.80;;
29854;SDS011;16733;48.738;9.106;2023-09-12T04:39:03;13.13;;;5.60;;
29854;SDS011;16733;48.738;9.106;2023-09-12T04:41:30;13.65;;;5.78;;
29854;SDS011;16733;48.738;9.106;2023-09-12T04:43:56;24.30;;;5.53;;
29854;SDS011;16733;48.738;9.106;2023-09-12T04:46:24;11.85;;;5.75;;
29854;SDS011;16733;48.738;9.106;2023-09-12T04:48:50;14.02;;;5.68;;
29854;SDS011;16733;48.738;9.106;2023-09-12T04:51:16;17.08;;;6.70;;
29854;SDS011;16733;48.738;9.106;2023-09-12T04:53:42;12.27;;;5.53;;
29854;SDS011;16733;48.738;9.106;2023-09-12T04:56:09;9.80;;;5.65;;
29854;SDS011;16733;48.738;9.106;2023-09-12T04:58:35;10.50;;;5.45;;
29854;SDS011;16733;48.738;9.106;2023-09-12T05:01:01;10.77;;;5.53;;
29854;SDS011;16733;48.738;9.106;2023-09-12T05:03:27;13.18;;;6.10;;
29854;SDS011;16733;48.738;9.106;2023-09-12T05:05:53;12.85;;;5.32;;
29854;SDS011;16733;48.738;9.106;2023-09-12T05:08:19;16.52;;;5.40;;
29854;SDS011;16733;48.738;9.106;2023-09-12T05:10:46;11.85;;;5.43;;
29854;SDS011;16733;48.738;9.106;2023-09-12T05:13:12;9.48;;;5.88;;
29854;SDS011;16733;48.738;9.106;2023-09-12T05:15:39;12.10;;;6.07;;
29854;SDS011;16733;48.738;9.106;2023-09-12T05:18:05;18.65;;;6.63;;
29854;SDS011;16733;48.738;9.106;2023-09-12T05:20:31;16.35;;;5.82;;
29854;SDS011;16733;48.738;9.106;2023-09-12T05:22:57;18.65;;;6.40;;
29854;SDS011;16733;48.738;9.106;2023-09-12T05:25:24;12.30;;;6.20;;
29854;SDS011;16733;48.738;9.106;2023-09-12T05:27:51;16.10;;;6.13;;
29854;SDS011;16733;48.738;9.106;2023-09-12T05:30:17;10.55;;;5.85;;
29854;SDS011;16733;48.738;9.106;2023-09-12T05:32:43;16.60;;;5.80;;
29854;SDS011;16733;48.738;9.106;2023-09-12T05:35:09;14.25;;;6.80;;
29854;SDS011;16733;48.738;9.106;2023-09-12T05:37:35;19.00;;;6.40;;
29854;SDS011;16733;48.738;9.106;2023-09-12T05:40:01;16.25;;;6.20;;
29854;SDS011;16733;48.738;9.106;2023-09-12T05:42:28;15.38;;;6.70;;
29854;SDS011;16733;48.738;9.106;2023-09-12T05:44:54;13.77;;;6.28;;
29854;SDS011;16733;48.738;9.106;2023-09-12T05:47:21;9.48;;;5.72;;
29854;SDS011;16733;48.738;9.106;2023-09-12T05:49:47;11.13;;;5.97;;
29854;SDS011;16733;48.738;9.106;2023-09-12T05:52:13;17.25;;;6.50;;
29854;SDS011;16733;48.738;9.106;2023-09-12T05:54:39;12.10;;;5.78;;
29854;SDS011;16733;48.738;9.106;2023-09-12T05:57:06;11.68;;;6.03;;
29854;SDS011;16733;48.738;9.106;2023-09-12T05:59:32;9.32;;;5.85;;
29854;SDS011;16733;48.738;9.106;2023-09-12T06:01:58;9.18;;;5.28;;
29854;SDS011;16733;48.738;9.106;2023-09-12T06:04:24;12.45;;;6.03;;
29854;SDS011;16733;48.738;9.106;2023-09-12T06:06:50;11.73;;;5.63;;
29854;SDS011;16733;48.738;9.106;2023-09-12T06:09:16;9.00;;;5.13;;
29854;SDS011;16733;48.738;9.106;2023-09-12T06:11:42;8.05;;;4.88;;
29854;SDS011;16733;48.738;9.106;2023-09-12T06:14:08;9.52;;;5.20;;
29854;SDS011;16733;48.738;9.106;2023-09-12T06:16:34;14.45;;;5.60;;
29854;SDS011;16733;48.738;9.106;2023-09-12T06:19:00;10.48;;;5.55;;
29854;SDS011;16733;48.738;9.106;2023-09-12T06:21:26;11.73;;;5.40;;
29854;SDS011;16733;48.738;9.106;2023-09-12T06:24:07;10.30;;;5.20;;
29854;SDS011;16733;48.738;9.106;2023-09-12T06:26:33;10.48;;;4.93;;
29854;SDS011;16733;48.738;9.106;2023-09-12T06:28:59;8.68;;;5.43;;
29854;SDS011;16733;48.738;9.106;2023-09-12T06:31:25;13.45;;;4.88;;
29854;SDS011;16733;48.738;9.106;2023-09-12T06:33:51;9.13;;;5.18;;
29854;SDS011;16733;48.738;9.106;2023-09-12T06:36:17;7.93;;;5.00;;
29854;SDS011;16733;48.738;9.106;2023-09-12T06:38:43;8.73;;;5.80;;
29854;SDS011;16733;48.738;9.106;2023-09-12T06:41:09;11.60;;;5.95;;
29854;SDS011;16733;48.738;9.106;2023-09-12T06:43:35;10.70;;;5.63;;
29854;SDS011;16733;48.738;9.106;2023-09-12T06:46:01;9.52;;;5.00;;
29854;SDS011;16733;48.738;9.106;2023-09-12T06:48:27;11.77;;;5.32;;
29854;SDS011;16733;48.738;9.106;2023-09-12T06:50:56;10.07;;;5.50;;
29854;SDS011;16733;48.738;9.106;2023-09-12T06:53:22;11.48;;;5.38;;
29854;SDS011;16733;48.738;9.106;2023-09-12T06:55:48;9.82;;;5.43;;
29854;SDS011;16733;48.738;9.106;2023-09-12T06:58:14;8.77;;;5.88;;
29854;SDS011;16733;48.738;9.106;2023-09-12T07:00:40;8.25;;;5.40;;
29854;SDS011;16733;48.738;9.106;2023-09-12T07:03:06;8.20;;;5.80;;
29854;SDS011;16733;48.738;9.106;2023-09-12T07:05:34;12.55;;;5.55;;
29854;SDS011;16733;48.738;9.106;2023-09-12T07:08:02;11.02;;;5.47;;
29854;SDS011;16733;48.738;9.106;2023-09-12T07:10:28;13.43;;;5.50;;
29854;SDS011;16733;48.738;9.106;2023-09-12T07:12:54;11.55;;;5.75;;
29854;SDS011;16733;48.738;9.106;2023-09-12T07:15:20;11.50;;;5.63;;
29854;SDS011;16733;48.738;9.106;2023-09-12T07:17:46;9.35;;;5.28;;
29854;SDS011;16733;48.738;9.106;2023-09-12T07:20:12;13.27;;;5.45;;
29854;SDS011;16733;48.738;9.106;2023-09-12T07:22:38;10.10;;;5.15;;
29854;SDS011;16733;48.738;9.106;2023-09-12T07:25:07;7.55;;;5.45;;
29854;SDS011;16733;48.738;9.106;2023-09-12T07:27:36;11.25;;;5.80;;
29854;SDS011;16733;48.738;9.106;2023-09-12T07:30:03;10.43;;;5.60;;
29854;SDS011;16733;48.738;9.106;2023-09-12T07:32:29;7.50;;;5.00;;
29854;SDS011;16733;48.738;9.106;2023-09-12T07:34:55;15.18;;;5.22;;
29854;SDS011;16733;48.738;9.106;2023-09-12T07:37:21;10.02;;;5.43;;
29854;SDS011;16733;48.738;9.106;2023-09-12T07:39:47;7.05;;;4.93;;
29854;SDS011;16733;48.738;9.106;2023-09-12T07:42:13;8.38;;;5.40;;
29854;SDS011;16733;48.738;9.106;2023-09-12T07:44:39;13.48;;;5.78;;
29854;SDS011;16733;48.738;9.106;2023-09-12T07:47:05;8.43;;;4.80;;
29854;SDS011;16733;48.738;9.106;2023-09-12T07:49:31;7.80;;;5.15;;
29854;SDS011;16733;48.738;9.106;2023-09-12T07:51:57;11.55;;;5.30;;
29854;SDS011;16733;48.738;9.106;2023-09-12T07:54:23;11.77;;;5.60;;
29854;SDS011;16733;48.738;9.106;2023-09-12T07:56:49;7.65;;;4.60;;
29854;SDS011;16733;48.738;9.106;2023-09-12T07:59:15;11.35;;;4.65;;
29854;SDS011;16733;48.738;9.106;2023-09-12T08:01:41;12.50;;;5.35;;
29854;SDS011;16733;48.738;9.106;2023-09-12T08:04:07;10.15;;;5.13;;
29854;SDS011;16733;48.738;9.106;2023-09-12T08:06:33;10.98;;;5.00;;
29854;SDS011;16733;48.738;9.106;2023-09-12T08:08:59;7.53;;;4.72;;
29854;SDS011;16733;48.738;9.106;2023-09-12T08:11:25;10.50;;;5.47;;
29854;SDS011;16733;48.738;9.106;2023-09-12T08:13:53;6.65;;;4.82;;
29854;SDS011;16733;48.738;9.106;2023-09-12T08:16:19;7.45;;;4.93;;
29854;SDS011;16733;48.738;9.106;2023-09-12T08:18:45;8.18;;;4.65;;
29854;SDS011;16733;48.738;9.106;2023-09-12T08:21:11;9.38;;;5.07;;
29854;SDS011;16733;48.738;9.106;2023-09-12T08:23:37;11.13;;;5.00;;
29854;SDS011;16733;48.738;9.106;2023-09-12T08:26:03;9.40;;;4.80;;
29854;SDS011;16733;48.738;9.106;2023-09-12T08:28:29;7.35;;;4.35;;
29854;SDS011;16733;48.738;9.106;2023-09-12T08:30:55;9.80;;;4.82;;
29854;SDS011;16733;48.738;9.106;2023-09-12T08:33:21;17.17;;;4.90;;
29854;SDS011;16733;48.738;9.106;2023-09-12T08:35:47;9.30;;;5.20;;
29854;SDS011;16733;48.738;9.106;2023-09-12T08:38:15;8.43;;;4.60;;
29854;SDS011;16733;48.738;9.106;2023-09-12T08:40:47;10.30;;;5.30;;
29854;SDS011;16733;48.738;9.106;2023-09-12T08:43:14;12.07;;;4.95;;
29854;SDS011;16733;48.738;9.106;2023-09-12T08:45:40;6.95;;;4.40;;
29854;SDS011;16733;48.738;9.106;2023-09-12T08:48:08;8.43;;;4.75;;
29854;SDS011;16733;48.738;9.106;2023-09-12T08:50:35;11.48;;;4.80;;
29854;SDS011;16733;48.738;9.106;2023-09-12T08:53:01;9.85;;;4.40;;
29854;SDS011;16733;48.738;9.106;2023-09-12T08:55:28;7.07;;;4.38;;
29854;SDS011;16733;48.738;9.106;2023-09-12T08:57:55;11.02;;;4.65;;
29854;SDS011;16733;48.738;9.106;2023-09-12T09:00:21;10.55;;;4.82;;
29854;SDS011;16733;48.738;9.106;2023-09-12T09:02:48;8.27;;;4.45;;
29854;SDS011;16733;48.738;9.106;2023-09-12T09:05:14;9.45;;;4.63;;
29854;SDS011;16733;48.738;9.106;2023-09-12T09:07:41;15.10;;;4.65;;
29854;SDS011;16733;48.738;9.106;2023-09-12T09:10:08;15.80;;;4.90;;
29854;SDS011;16733;48.738;9.106;2023-09-12T09:12:34;9.70;;;4.70;;
29854;SDS011;16733;48.738;9.106;2023-09-12T09:17:45;8.88;;;4.85;;
29854;SDS011;16733;48.738;9.106;2023-09-12T09:20:21;11.15;;;4.72;;
29854;SDS011;16733;48.738;9.106;2023-09-12T09:23:00;8.48;;;4.72;;
29854;SDS011;16733;48.738;9.106;2023-09-12T09:25:27;6.60;;;4.68;;
29854;SDS011;16733;48.738;9.106;2023-09-12T09:27:53;7.00;;;4.60;;
29854;SDS011;16733;48.738;9.106;2023-09-12T09:31:01;7.40;;;4.88;;
29854;SDS011;16733;48.738;9.106;2023-09-12T09:33:09;6.78;;;4.10;;
29854;SDS011;16733;48.738;9.106;2023-09-12T09:35:35;8.93;;;4.55;;
29854;SDS011;16733;48.738;9.106;2023-09-12T09:38:02;11.45;;;4.28;;
29854;SDS011;16733;48.738;9.106;2023-09-12T09:40:28;10.27;;;4.78;;
29854;SDS011;16733;48.738;9.106;2023-09-12T09:42:55;12.55;;;4.82;;
29854;SDS011;16733;48.738;9.106;2023-09-12T09:45:21;9.98;;;4.60;;
29854;SDS011;16733;48.738;9.106;2023-09-12T09:47:50;8.48;;;4.63;;
29854;SDS011;16733;48.738;9.106;2023-09-12T09:50:16;11.70;;;5.32;;
29854;SDS011;16733;48.738;9.106;2023-09-12T09:52:43;8.30;;;4.30;;
29854;SDS011;16733;48.738;9.106;2023-09-12T09:55:15;8.95;;;4.60;;
29854;SDS011;16733;48.738;9.106;2023-09-12T09:57:41;9.65;;;5.10;;
29854;SDS011;16733;48.738;9.106;2023-09-12T10:00:07;6.72;;;3.88;;
29854;SDS011;16733;48.738;9.106;2023-09-12T10:02:34;8.15;;;4.32;;
29854;SDS011;16733;48.738;9.106;2023-09-12T10:05:02;11.77;;;4.30;;
29854;SDS011;16733;48.738;9.106;2023-09-12T10:07:33;12.48;;;5.22;;
29854;SDS011;16733;48.738;9.106;2023-09-12T10:10:03;8.13;;;3.88;;
29854;SDS011;16733;48.738;9.106;2023-09-12T10:12:34;12.02;;;4.15;;
29854;SDS011;16733;48.738;9.106;2023-09-12T10:15:01;5.60;;;4.20;;
29854;SDS011;16733;48.738;9.106;2023-09-12T10:17:29;8.23;;;3.88;;
29854;SDS011;16733;48.738;9.106;2023-09-12T10:19:58;9.63;;;4.22;;
29854;SDS011;16733;48.738;9.106;2023-09-12T10:22:37;7.85;;;3.83;;
29854;SDS011;16733;48.738;9.106;2023-09-12T10:25:06;8.32;;;3.85;;
29854;SDS011;16733;48.738;9.106;2023-09-12T10:27:33;7.25;;;4.10;;
29854;SDS011;16733;48.738;9.106;2023-09-12T10:29:59;10.38;;;4.53;;
29854;SDS011;16733;48.738;9.106;2023-09-12T10:32:26;7.75;;;3.83;;
29854;SDS011;16733;48.738;9.106;2023-09-12T10:34:53;12.00;;;3.90;;
29854;SDS011;16733;48.738;9.106;2023-09-12T10:37:20;12.10;;;4.25;;
29854;SDS011;16733;48.738;9.106;2023-09-12T10:39:47;8.07;;;3.97;;
29854;SDS011;16733;48.738;9.106;2023-09-12T10:42:15;8.85;;;4.22;;
29854;SDS011;16733;48.738;9.106;2023-09-12T10:44:42;4.82;;;3.58;;
29854;SDS011;16733;48.738;9.106;2023-09-12T10:47:09;9.38;;;4.38;;
29854;SDS011;16733;48.738;9.106;2023-09-12T10:49:35;7.97;;;4.25;;
29854;SDS011;16733;48.738;9.106;2023-09-12T10:52:01;10.40;;;4.15;;
29854;SDS011;16733;48.738;9.106;2023-09-12T10:54:38;7.53;;;4.03;;
29854;SDS011;16733;48.738;9.106;2023-09-12T10:57:05;9.95;;;3.92;;
29854;SDS011;16733;48.738;9.106;2023-09-12T10:59:31;13.93;;;4.13;;
29854;SDS011;16733;48.738;9.106;2023-09-12T11:04:59;10.98;;;3.75;;
29854;SDS011;16733;48.738;9.106;2023-09-12T11:12:48;16.45;;;4.15;;
29854;SDS011;16733;48.738;9.106;2023-09-12T11:15:15;6.90;;;4.10;;
29854;SDS011;16733;48.738;9.106;2023-09-12T11:18:15;6.38;;;4.25;;
29854;SDS011;16733;48.738;9.106;2023-09-12T11:23:16;6.68;;;3.97;;
29854;SDS011;16733;48.738;9.106;2023-09-12T11:25:42;8.80;;;4.35;;
29854;SDS011;16733;48.738;9.106;2023-09-12T11:28:09;7.25;;;4.13;;
29854;SDS011;16733;48.738;9.106;2023-09-12T11:30:35;12.75;;;4.78;;
29854;SDS011;16733;48.738;9.106;2023-09-12T11:33:03;5.75;;;3.90;;
29854;SDS011;16733;48.738;9.106;2023-09-12T11:35:29;7.47;;;4.32;;
29854;SDS011;16733;48.738;9.106;2023-09-12T11:37:56;6.85;;;4.75;;
29854;SDS011;16733;48.738;9.106;2023-09-12T11:40:23;8.93;;;3.50;;
29854;SDS011;16733;48.738;9.106;2023-09-12T11:42:49;8.25;;;4.32;;
29854;SDS011;16733;48.738;9.106;2023-09-12T11:45:17;9.55;;;4.07;;
29854;SDS011;16733;48.738;9.106;2023-09-12T11:47:44;7.88;;;3.60;;
29854;SDS011;16733;48.738;9.106;2023-09-12T11:53:13;4.63;;;3.72;;
29854;SDS011;16733;48.738;9.106;2023-09-12T11:55:43;13.05;;;3.97;;
29854;SDS011;16733;48.738;9.106;2023-09-12T11:58:10;6.25;;;3.70;;
29854;SDS011;16733;48.738;9.106;2023-09-12T12:00:36;8.43;;;3.42;;
29854;SDS011;16733;48.738;9.106;2023-09-12T12:03:03;6.95;;;3.92;;
29854;SDS011;16733;48.738;9.106;2023-09-12T12:05:29;8.00;;;4.82;;
29854;SDS011;16733;48.738;9.106;2023-09-12T12:07:56;7.82;;;4.63;;
29854;SDS011;16733;48.738;9.106;2023-09-12T12:10:23;13.25;;;4.18;;
29854;SDS011;16733;48.738;9.106;2023-09-12T12:12:52;6.32;;;4.20;;
29854;SDS011;16733;48.738;9.106;2023-09-12T12:15:19;9.00;;;4.30;;
29854;SDS011;16733;48.738;9.106;2023-09-12T12:17:45;10.80;;;5.10;;
29854;SDS011;16733;48.738;9.106;2023-09-12T12:20:11;6.53;;;3.85;;
29854;SDS011;16733;48.738;9.106;2023-09-12T12:22:38;13.45;;;4.22;;
29854;SDS011;16733;48.738;9.106;2023-09-12T12:25:11;8.32;;;4.18;;
29854;SDS011;16733;48.738;9.106;2023-09-12T12:27:37;12.75;;;3.97;;
29854;SDS011;16733;48.738;9.106;2023-09-12T12:30:05;7.30;;;4.30;;
29854;SDS011;16733;48.738;9.106;2023-09-12T12:32:31;8.32;;;4.60;;
29854;SDS011;16733;48.738;9.106;2023-09-12T12:34:57;13.05;;;4.20;;
29854;SDS011;16733;48.738;9.106;2023-09-12T12:37:30;10.13;;;3.88;;
29854;SDS011;16733;48.738;9.106;2023-09-12T12:39:56;10.82;;;4.18;;
29854;SDS011;16733;48.738;9.106;2023-09-12T12:42:22;13.52;;;4.45;;
29854;SDS011;16733;48.738;9.106;2023-09-12T12:44:56;14.75;;;4.05;;
29854;SDS011;16733;48.738;9.106;2023-09-12T12:47:22;8.35;;;4.30;;
29854;SDS011;16733;48.738;9.106;2023-09-12T12:49:50;7.00;;;4.43;;
29854;SDS011;16733;48.738;9.106;2023-09-12T12:52:21;9.65;;;4.35;;
29854;SDS011;16733;48.738;9.106;2023-09-12T12:54:47;6.07;;;3.72;;
29854;SDS011;16733;48.738;9.106;2023-09-12T12:57:17;9.18;;;3.78;;
29854;SDS011;16733;48.738;9.106;2023-09-12T12:59:47;6.72;;;4.00;;
29854;SDS011;16733;48.738;9.106;2023-09-12T13:02:14;10.10;;;4.35;;
29854;SDS011;16733;48.738;9.106;2023-09-12T13:04:40;10.15;;;4.40;;
29854;SDS011;16733;48.738;9.106;2023-09-12T13:07:06;6.35;;;4.03;;
29854;SDS011;16733;48.738;9.106;2023-09-12T13:09:32;6.05;;;4.00;;
29854;SDS011;16733;48.738;9.106;2023-09-12T13:11:59;10.75;;;3.97;;
29854;SDS011;16733;48.738;9.106;2023-09-12T13:14:25;10.57;;;4.32;;
29854;SDS011;16733;48.738;9.106;2023-09-12T13:16:56;12.82;;;3.65;;
29854;SDS011;16733;48.738;9.106;2023-09-12T13:19:22;5.85;;;3.80;;
29854;SDS011;16733;48.738;9.106;2023-09-12T13:21:48;10.05;;;4.35;;
29854;SDS011;16733;48.738;9.106;2023-09-12T13:24:14;10.85;;;3.55;;
29854;SDS011;16733;48.738;9.106;2023-09-12T13:26:40;7.43;;;3.80;;
29854;SDS011;16733;48.738;9.106;2023-09-12T13:29:06;7.78;;;3.92;;
29854;SDS011;16733;48.738;9.106;2023-09-12T13:31:32;8.35;;;4.03;;
29854;SDS011;16733;48.738;9.106;2023-09-12T13:33:58;8.35;;;4.53;;
29854;SDS011;16733;48.738;9.106;2023-09-12T13:36:24;12.18;;;3.72;;
29854;SDS011;16733;48.738;9.106;2023-09-12T13:38:51;6.22;;;3.53;;
29854;SDS011;16733;48.738;9.106;2023-09-12T13:41:17;9.50;;;4.72;;
29854;SDS011;16733;48.738;9.106;2023-09-12T13:43:43;5.53;;;3.80;;
29854;SDS011;16733;48.738;9.106;2023-09-12T13:46:10;11.63;;;3.72;;
29854;SDS011;16733;48.738;9.106;2023-09-12T13:48:36;12.55;;;4.15;;
29854;SDS011;16733;48.738;9.106;2023-09-12T13:51:02;6.65;;;3.80;;
29854;SDS011;16733;48.738;9.106;2023-09-12T13:53:28;12.75;;;3.78;;
29854;SDS011;16733;48.738;9.106;2023-09-12T13:55:54;12.40;;;3.65;;
29854;SDS011;16733;48.738;9.106;2023-09-12T13:58:22;8.70;;;3.95;;
29854;SDS011;16733;48.738;9.106;2023-09-12T14:00:48;13.32;;;4.05;;
29854;SDS011;16733;48.738;9.106;2023-09-12T14:03:14;12.77;;;4.28;;
29854;SDS011;16733;48.738;9.106;2023-09-12T14:05:40;9.80;;;4.00;;
29854;SDS011;16733;48.738;9.106;2023-09-12T14:08:06;7.82;;;3.60;;
29854;SDS011;16733;48.738;9.106;2023-09-12T14:10:32;7.95;;;4.10;;
29854;SDS011;16733;48.738;9.106;2023-09-12T14:12:58;8.93;;;3.63;;
29854;SDS011;16733;48.738;9.106;2023-09-12T14:15:24;9.02;;;3.95;;
29854;SDS011;16733;48.738;9.106;2023-09-12T14:17:50;5.95;;;3.53;;
29854;SDS011;16733;48.738;9.106;2023-09-12T14:20:16;11.27;;;3.85;;
29854;SDS011;16733;48.738;9.106;2023-09-12T14:22:43;8.93;;;4.03;;
29854;SDS011;16733;48.738;9.106;2023-09-12T14:25:09;10.73;;;3.88;;
29854;SDS011;16733;48.738;9.106;2023-09-12T14:27:40;7.93;;;3.90;;
29854;SDS011;16733;48.738;9.106;2023-09-12T14:30:07;6.80;;;3.85;;
29854;SDS011;16733;48.738;9.106;2023-09-12T14:32:33;7.20;;;3.47;;
29854;SDS011;16733;48.738;9.106;2023-09-12T14:34:59;8.75;;;3.97;;
29854;SDS011;16733;48.738;9.106;2023-09-12T14:37:25;7.97;;;3.88;;
29854;SDS011;16733;48.738;9.106;2023-09-12T14:39:53;10.23;;;3.42;;
29854;SDS011;16733;48.738;9.106;2023-09-12T14:42:20;15.75;;;4.40;;
29854;SDS011;16733;48.738;9.106;2023-09-12T14:44:46;12.82;;;3.95;;
29854;SDS011;16733;48.738;9.106;2023-09-12T14:47:12;9.07;;;4.03;;
29854;SDS011;16733;48.738;9.106;2023-09-12T14:49:38;10.35;;;3.50;;
29854;SDS011;16733;48.738;9.106;2023-09-12T14:52:04;7.28;;;3.75;;
29854;SDS011;16733;48.738;9.106;2023-09-12T14:54:30;4.53;;;3.53;;
29854;SDS011;16733;48.738;9.106;2023-09-12T14:56:56;9.05;;;3.92;;